Portada
METAR-TAF:

METAR-TAF

Aeroports :

Fort Drum, Nova York, Estats Units d'Amèrica

latitud: 44-03N, longitud: 075-44W, altitud: 207 m

Observació

L'informe es va fer fa 38 minuts, a les 17:56 UTC
Vent 7 kt del Oest/Sud-Oest
Temperatura 31°C
Humitat 55%
Pressió 1020 hPa
Visibilitat: 16.1 km
Escasses núvols a una alçada de 20000 ft

METAR: KGTB 261756Z AUTO 24007KT 10SM FEW200 31/21 A3011 RMK AO2 SLP193 60000 T03060205 10310 20210 58007

Hora: 14:34 (18:34 UTC)

Pronòstic

L'informe es va fer fa 1 hora i 34 minuts, a les 17:00 UTC
Pronòstic vàlid del 26 a les 17 UTC al 27 a les 23 UTC
Vent 6 kt amb direcció variable
Visibilitat 10 km o més
Escasses núvols a una alçada de 20000 ft
Evolucionant progressivament
l' 27 a les 17 UTC al 27 a les 18 UTC
Vent 9 kt del Sud-Oest
Visibilitat 10 km o més
Núvols disperses a una alçada de 3500 ft

TAF: KGTB 261700Z 2617/2723 VRB06KT 9999 FEW200 QNH3011INS BECMG 2717/2718 22009KT 9999 SCT035 QNH3010INS TX30/2619Z TN20/2707Z

Observacions i pronòstics meteorològics de més de 4000 aeroports (METAR i TAF).

Les estacions disponibles són els punts grocs i vermells al mapa.

Posi el ratolí al punt desitjat per veure el nom de l'estació.

Feu clic per veure les observacions i els pronòstics meteorològics.

Per canviar el mapa: feu clic els botons verds amb una creu de color negre per apropar; al botó verd amb un guió per allunyar la imatge; o en les fletxes verdes per a mapes adjacents.


METAR-TAF: